createdAt,value
2024-04-05T00:00:28.486Z,116.33
2024-04-05T00:01:05.908Z,112.33
2024-04-05T00:01:37.351Z,108.67
2024-04-05T00:02:08.756Z,105.00
2024-04-05T00:02:46.849Z,102.33
2024-04-05T00:03:18.312Z,104.00
2024-04-05T00:03:51.194Z,105.00
2024-04-05T00:04:22.673Z,105.00
2024-04-05T00:04:54.096Z,105.00
2024-04-05T00:05:25.531Z,104.00
2024-04-05T00:05:57.190Z,103.33
2024-04-05T00:06:28.595Z,104.33
2024-04-05T00:07:00.092Z,105.67
2024-04-05T00:07:31.510Z,107.00
2024-04-05T00:08:03.175Z,107.67
2024-04-05T00:08:34.654Z,108.00
2024-04-05T00:09:06.796Z,107.67
2024-04-05T00:09:41.959Z,105.00
2024-04-05T00:10:13.366Z,101.00
2024-04-05T00:10:44.984Z,96.67
2024-04-05T00:11:16.868Z,95.67
2024-04-05T00:11:48.286Z,96.00
2024-04-05T00:12:19.707Z,93.00
2024-04-05T00:12:58.485Z,88.00
2024-04-05T00:13:35.237Z,73.67
2024-04-05T00:14:06.664Z,65.33
2024-04-05T00:14:38.072Z,64.33
2024-04-05T00:15:09.783Z,65.00
2024-04-05T00:15:41.190Z,66.67
2024-04-05T00:16:12.631Z,67.00
2024-04-05T00:16:44.020Z,67.33
2024-04-05T00:17:15.592Z,66.00
2024-04-05T00:17:47.583Z,64.00
2024-04-05T00:18:20.233Z,62.67
2024-04-05T00:18:51.708Z,60.67
2024-04-05T00:19:23.119Z,56.33
2024-04-05T00:19:54.530Z,56.00
2024-04-05T00:20:25.967Z,53.33
2024-04-05T00:20:57.364Z,49.67
2024-04-05T00:21:28.770Z,45.33
2024-04-05T00:22:00.333Z,42.67
2024-04-05T00:22:31.755Z,42.67
2024-04-05T00:23:04.314Z,41.00
2024-04-05T00:23:37.515Z,38.67
2024-04-05T00:24:09.912Z,37.33
2024-04-05T00:24:42.544Z,39.67
2024-04-05T00:25:14.085Z,38.00
2024-04-05T00:25:57.545Z,35.00
2024-04-05T00:26:28.938Z,35.33
2024-04-05T00:27:01.491Z,37.00
2024-04-05T00:27:33.184Z,39.33
2024-04-05T00:28:05.204Z,40.00
2024-04-05T00:28:36.726Z,41.00
2024-04-05T00:29:08.141Z,41.67
2024-04-05T00:29:40.358Z,42.67
2024-04-05T00:30:11.757Z,43.67
2024-04-05T00:30:43.362Z,50.00
2024-04-05T00:31:14.782Z,62.33
2024-04-05T00:31:46.194Z,67.67
2024-04-05T00:32:18.484Z,69.33
2024-04-05T00:32:49.930Z,70.33
2024-04-05T00:33:21.920Z,69.33
2024-04-05T00:33:54.235Z,68.33
2024-04-05T00:34:26.301Z,68.33
2024-04-05T00:34:57.717Z,69.00
2024-04-05T00:35:29.130Z,69.00
2024-04-05T00:36:00.548Z,69.00
2024-04-05T00:36:31.997Z,68.33
2024-04-05T00:37:03.552Z,68.00
2024-04-05T00:37:34.975Z,69.00
2024-04-05T00:38:06.379Z,71.00
2024-04-05T00:38:37.812Z,74.00
2024-04-05T00:39:09.206Z,75.67
2024-04-05T00:39:40.708Z,76.67
2024-04-05T00:40:12.119Z,77.33
2024-04-05T00:40:43.855Z,78.67
2024-04-05T00:41:15.308Z,81.00
2024-04-05T00:41:46.713Z,82.00
2024-04-05T00:42:19.467Z,82.00
2024-04-05T00:42:50.925Z,83.33
2024-04-05T00:43:23.980Z,86.67
2024-04-05T00:43:55.397Z,88.00
2024-04-05T00:44:26.802Z,86.67
2024-04-05T00:44:59.003Z,85.33
2024-04-05T00:45:30.514Z,85.00
2024-04-05T00:46:04.086Z,84.00
2024-04-05T00:46:36.310Z,83.33
2024-04-05T00:47:08.325Z,83.33
2024-04-05T00:47:39.750Z,83.67
2024-04-05T00:48:12.739Z,83.00
2024-04-05T00:48:44.515Z,83.00
2024-04-05T00:49:15.967Z,83.00
2024-04-05T00:49:48.872Z,82.67
2024-04-05T00:50:20.352Z,82.00
2024-04-05T00:50:52.997Z,81.67
2024-04-05T00:51:24.606Z,81.00
2024-04-05T00:52:03.286Z,81.00
2024-04-05T00:52:34.989Z,81.00
2024-04-05T00:53:10.156Z,80.00
2024-04-05T00:53:41.634Z,78.00
2024-04-05T00:54:13.933Z,74.00
2024-04-05T00:54:46.604Z,72.00
2024-04-05T00:55:18.391Z,69.00
2024-04-05T00:55:52.300Z,68.00
2024-04-05T00:56:25.802Z,67.33
2024-04-05T00:56:57.578Z,66.67
2024-04-05T00:57:29.869Z,66.00
2024-04-05T00:58:04.418Z,65.00
2024-04-05T00:58:35.862Z,65.00
2024-04-05T00:59:10.131Z,65.00
2024-04-05T00:59:42.530Z,66.00
2024-04-05T01:00:14.823Z,66.00
2024-04-05T01:00:46.243Z,66.00
2024-04-05T01:01:18.093Z,66.00
2024-04-05T01:01:49.791Z,68.00
2024-04-05T01:02:21.338Z,69.00
2024-04-05T01:02:52.780Z,69.00
2024-04-05T01:03:24.189Z,67.67
2024-04-05T01:03:56.492Z,65.33
2024-04-05T01:04:27.958Z,64.00
2024-04-05T01:04:59.357Z,63.33
2024-04-05T01:05:31.618Z,63.00
2024-04-05T01:06:03.164Z,63.00
2024-04-05T01:06:34.582Z,63.00
2024-04-05T01:07:06.237Z,63.00
2024-04-05T01:07:38.201Z,63.00
2024-04-05T01:08:10.520Z,63.00
2024-04-05T01:08:42.340Z,63.33
2024-04-05T01:09:13.887Z,64.00
2024-04-05T01:09:45.292Z,64.67
2024-04-05T01:10:16.785Z,65.33
2024-04-05T01:10:48.234Z,66.00
2024-04-05T01:11:19.638Z,66.00
2024-04-05T01:11:55.222Z,65.67
2024-04-05T01:12:26.658Z,64.33
2024-04-05T01:13:02.995Z,63.33
2024-04-05T01:13:34.459Z,63.00
2024-04-05T01:14:05.868Z,63.00
2024-04-05T01:14:37.285Z,63.00
2024-04-05T01:15:08.794Z,63.00
2024-04-05T01:15:41.056Z,63.67
2024-04-05T01:16:12.463Z,64.00
2024-04-05T01:16:43.908Z,64.67
2024-04-05T01:17:15.334Z,65.00
2024-04-05T01:17:46.737Z,65.33
2024-04-05T01:18:18.154Z,67.00
2024-04-05T01:18:52.864Z,69.67
2024-04-05T01:19:26.107Z,71.00
2024-04-05T01:19:59.412Z,71.00
2024-04-05T01:20:32.177Z,70.67
2024-04-05T01:21:03.630Z,69.33
2024-04-05T01:21:35.203Z,67.67
2024-04-05T01:22:11.310Z,66.33
2024-04-05T01:22:52.699Z,64.67
2024-04-05T01:23:27.593Z,63.67
2024-04-05T01:23:59.439Z,63.00
2024-04-05T01:24:30.980Z,63.00
2024-04-05T01:25:02.430Z,63.00
2024-04-05T01:25:35.364Z,63.00
2024-04-05T01:26:06.872Z,63.00
2024-04-05T01:26:38.281Z,63.00
2024-04-05T01:27:09.702Z,62.00
2024-04-05T01:27:43.499Z,62.00
2024-04-05T01:28:15.242Z,62.00
2024-04-05T01:28:46.634Z,62.67
2024-04-05T01:29:18.315Z,63.00
2024-04-05T01:29:49.817Z,63.00
2024-04-05T01:30:21.547Z,63.00
2024-04-05T01:30:52.973Z,63.00
2024-04-05T01:31:24.390Z,63.00
2024-04-05T01:31:55.801Z,63.00
2024-04-05T01:32:27.254Z,63.00
2024-04-05T01:33:01.274Z,63.33
2024-04-05T01:33:32.812Z,64.00
2024-04-05T01:34:04.211Z,64.00
2024-04-05T01:34:35.625Z,64.00
2024-04-05T01:35:07.056Z,64.00
2024-04-05T01:35:39.356Z,64.00
2024-04-05T01:36:10.764Z,64.00
2024-04-05T01:36:42.262Z,64.33
2024-04-05T01:37:13.676Z,65.00
2024-04-05T01:37:45.535Z,65.00
2024-04-05T01:38:16.990Z,65.00
2024-04-05T01:38:48.414Z,65.00
2024-04-05T01:39:20.728Z,65.00
2024-04-05T01:39:52.142Z,65.00
2024-04-05T01:40:24.599Z,65.00
2024-04-05T01:40:56.014Z,65.33
2024-04-05T01:41:27.454Z,66.00
2024-04-05T01:41:58.869Z,66.33
2024-04-05T01:42:30.298Z,67.00
2024-04-05T01:43:01.914Z,67.00
2024-04-05T01:43:33.334Z,68.00
2024-04-05T01:44:04.847Z,68.33
2024-04-05T01:44:36.236Z,69.00
2024-04-05T01:45:07.884Z,69.67
2024-04-05T01:45:39.285Z,70.67
2024-04-05T01:46:11.289Z,71.00
2024-04-05T01:46:42.748Z,71.00
2024-04-05T01:47:14.925Z,71.67
2024-04-05T01:47:47.143Z,72.00
2024-04-05T01:48:18.555Z,72.00
2024-04-05T01:48:49.994Z,73.00
2024-04-05T01:49:23.244Z,73.00
2024-04-05T01:49:55.199Z,74.00
2024-04-05T01:50:26.728Z,74.00
2024-04-05T01:50:58.123Z,74.33
2024-04-05T01:51:29.527Z,75.00
2024-04-05T01:52:00.943Z,75.00
2024-04-05T01:52:32.831Z,75.00
2024-04-05T01:53:04.235Z,75.00
2024-04-05T01:53:35.645Z,75.67
2024-04-05T01:54:07.077Z,77.00
2024-04-05T01:54:38.487Z,78.33
2024-04-05T01:55:10.142Z,79.33
2024-04-05T01:55:41.723Z,81.00
2024-04-05T01:56:13.136Z,83.00
2024-04-05T01:56:44.587Z,83.00
2024-04-05T01:57:15.995Z,82.00
2024-04-05T01:57:47.404Z,82.67
2024-04-05T01:58:18.820Z,83.00
2024-04-05T01:58:50.228Z,83.67
2024-04-05T01:59:21.644Z,84.00
2024-04-05T01:59:54.813Z,84.00
2024-04-05T02:00:26.204Z,84.67
2024-04-05T02:01:01.403Z,86.00
2024-04-05T02:01:34.298Z,87.00
2024-04-05T02:02:05.701Z,86.00
2024-04-05T02:02:37.390Z,86.00
2024-04-05T02:03:08.895Z,86.00
2024-04-05T02:03:40.309Z,86.33
2024-04-05T02:04:13.827Z,87.67
2024-04-05T02:04:45.262Z,88.67
2024-04-05T02:05:16.715Z,91.00
2024-04-05T02:05:48.132Z,93.00
2024-04-05T02:06:19.529Z,94.67
2024-04-05T02:06:50.953Z,95.00
2024-04-05T02:07:23.229Z,95.00
2024-04-05T02:07:54.758Z,95.00
2024-04-05T02:08:26.170Z,95.00
2024-04-05T02:08:57.736Z,95.00
2024-04-05T02:09:29.144Z,95.00
2024-04-05T02:10:00.581Z,95.00
2024-04-05T02:10:33.371Z,95.67
2024-04-05T02:11:04.763Z,96.67
2024-04-05T02:11:36.168Z,99.00
2024-04-05T02:12:07.581Z,101.67
2024-04-05T02:12:38.999Z,101.00
2024-04-05T02:13:10.421Z,100.33
2024-04-05T02:13:41.844Z,100.00
2024-04-05T02:14:13.254Z,102.00
2024-04-05T02:14:45.031Z,105.33
2024-04-05T02:15:16.460Z,106.00
2024-04-05T02:15:47.892Z,105.67
2024-04-05T02:16:19.279Z,104.67
2024-04-05T02:16:50.724Z,104.00
2024-04-05T02:17:22.248Z,103.33
2024-04-05T02:17:53.664Z,103.00
2024-04-05T02:18:25.083Z,104.67
2024-04-05T02:18:56.504Z,112.33
2024-04-05T02:19:27.917Z,127.67
2024-04-05T02:19:59.329Z,138.67
2024-04-05T02:20:30.755Z,141.33
2024-04-05T02:21:02.204Z,142.33
2024-04-05T02:21:33.602Z,148.00
2024-04-05T02:22:11.223Z,154.67
2024-04-05T02:22:42.701Z,165.00
2024-04-05T02:23:14.521Z,172.67
2024-04-05T02:23:45.933Z,178.67
2024-04-05T02:24:17.494Z,181.33
2024-04-05T02:24:48.906Z,182.00
2024-04-05T02:25:20.327Z,182.00
2024-04-05T02:25:51.816Z,181.00
2024-04-05T02:26:23.279Z,178.33
2024-04-05T02:26:54.667Z,177.00
2024-04-05T02:27:26.535Z,178.33
2024-04-05T02:27:58.005Z,182.67
2024-04-05T02:28:29.650Z,186.00
2024-04-05T02:29:01.062Z,189.00
2024-04-05T02:29:33.362Z,193.00
2024-04-05T02:30:06.254Z,197.00
2024-04-05T02:30:40.863Z,195.67
2024-04-05T02:31:12.278Z,188.33
2024-04-05T02:31:43.892Z,184.00
2024-04-05T02:32:15.294Z,179.67
2024-04-05T02:32:47.046Z,176.67
2024-04-05T02:33:18.480Z,175.33
2024-04-05T02:33:50.165Z,174.00
2024-04-05T02:34:21.891Z,174.67
2024-04-05T02:34:53.301Z,179.33
2024-04-05T02:35:24.720Z,183.67
2024-04-05T02:36:01.941Z,184.00
2024-04-05T02:36:33.373Z,185.33
2024-04-05T02:37:04.842Z,185.67
2024-04-05T02:37:36.301Z,183.33
2024-04-05T02:38:07.709Z,181.67
2024-04-05T02:38:39.120Z,179.67
2024-04-05T02:39:10.799Z,177.00
2024-04-05T02:39:42.214Z,175.33
2024-04-05T02:40:13.646Z,174.67
2024-04-05T02:40:55.151Z,174.00
2024-04-05T02:41:26.574Z,176.67
2024-04-05T02:41:57.986Z,179.67
2024-04-05T02:42:29.428Z,178.33
2024-04-05T02:43:00.833Z,178.00
2024-04-05T02:43:32.250Z,178.00
2024-04-05T02:44:03.714Z,179.00
2024-04-05T02:44:35.130Z,180.00
2024-04-05T02:45:07.610Z,181.67
2024-04-05T02:45:39.028Z,184.00
2024-04-05T02:46:10.453Z,190.67
2024-04-05T02:46:42.575Z,199.00
2024-04-05T02:47:13.995Z,205.33
2024-04-05T02:47:45.423Z,207.00
2024-04-05T02:48:16.830Z,209.00
2024-04-05T02:48:48.230Z,201.33
2024-04-05T02:49:19.651Z,176.67
2024-04-05T02:49:53.746Z,159.33
2024-04-05T02:50:25.161Z,168.33
2024-04-05T02:50:56.780Z,176.67
2024-04-05T02:51:28.183Z,186.33
2024-04-05T02:51:59.634Z,195.67
2024-04-05T02:52:31.020Z,201.67
2024-04-05T02:53:02.471Z,205.00
2024-04-05T02:53:33.925Z,208.00
2024-04-05T02:54:06.567Z,210.67
2024-04-05T02:54:37.974Z,210.00
2024-04-05T02:55:09.595Z,208.33
2024-04-05T02:55:41.058Z,208.33
2024-04-05T02:56:14.465Z,208.00
2024-04-05T02:56:45.915Z,209.33
2024-04-05T02:57:17.340Z,215.33
2024-04-05T02:57:48.747Z,221.00
2024-04-05T02:58:20.179Z,227.67
2024-04-05T02:58:51.581Z,231.67
2024-04-05T02:59:23.005Z,234.00
2024-04-05T02:59:54.410Z,236.33
2024-04-05T03:00:25.844Z,237.67
2024-04-05T03:00:57.246Z,239.67
2024-04-05T03:01:28.818Z,238.67
2024-04-05T03:02:00.265Z,234.00
2024-04-05T03:02:31.653Z,231.67
2024-04-05T03:03:03.205Z,231.67
2024-04-05T03:03:35.147Z,232.67
2024-04-05T03:04:07.607Z,232.33
2024-04-05T03:04:39.050Z,230.00
2024-04-05T03:05:11.601Z,228.00
2024-04-05T03:05:43.036Z,227.00
2024-04-05T03:06:14.443Z,226.67
2024-04-05T03:06:45.845Z,226.33
2024-04-05T03:07:17.283Z,229.00
2024-04-05T03:07:50.533Z,231.33
2024-04-05T03:08:22.686Z,232.00
2024-04-05T03:08:54.128Z,232.00
2024-04-05T03:09:25.531Z,233.00
2024-04-05T03:09:56.955Z,232.67
2024-04-05T03:10:29.943Z,232.00
2024-04-05T03:11:01.367Z,232.67
2024-04-05T03:11:32.780Z,234.00
2024-04-05T03:12:04.202Z,233.00
2024-04-05T03:12:36.273Z,233.00
2024-04-05T03:13:08.145Z,233.00
2024-04-05T03:13:40.641Z,232.67
2024-04-05T03:14:12.448Z,232.00
2024-04-05T03:14:43.851Z,232.00
2024-04-05T03:15:15.285Z,231.67
2024-04-05T03:15:47.576Z,231.00
2024-04-05T03:16:18.995Z,231.00
2024-04-05T03:16:50.407Z,230.00
2024-04-05T03:17:21.819Z,229.67
2024-04-05T03:17:53.239Z,229.00
2024-04-05T03:18:24.656Z,228.33
2024-04-05T03:18:56.095Z,227.00
2024-04-05T03:19:27.713Z,223.33
2024-04-05T03:19:59.110Z,220.67
2024-04-05T03:20:30.980Z,219.00
2024-04-05T03:21:02.513Z,217.33
2024-04-05T03:21:33.981Z,217.00
2024-04-05T03:22:05.371Z,217.33
2024-04-05T03:22:36.791Z,218.00
2024-04-05T03:23:08.197Z,218.67
2024-04-05T03:23:39.607Z,220.33
2024-04-05T03:24:11.550Z,222.67
2024-04-05T03:24:43.062Z,224.33
2024-04-05T03:25:14.461Z,225.00
2024-04-05T03:25:46.255Z,225.00
2024-04-05T03:26:17.698Z,225.00
2024-04-05T03:26:49.084Z,225.00
2024-04-05T03:27:20.497Z,225.00
2024-04-05T03:27:51.918Z,225.00
2024-04-05T03:28:23.358Z,225.00
2024-04-05T03:28:54.838Z,225.00
2024-04-05T03:29:26.288Z,225.00
2024-04-05T03:29:57.773Z,225.00
2024-04-05T03:30:29.174Z,225.00
2024-04-05T03:31:03.677Z,225.33
2024-04-05T03:31:36.025Z,227.00
2024-04-05T03:32:09.465Z,229.00
2024-04-05T03:32:41.115Z,229.00
2024-04-05T03:33:12.885Z,228.33
2024-04-05T03:33:44.364Z,228.00
2024-04-05T03:34:15.779Z,228.00
2024-04-05T03:34:47.266Z,228.00
2024-04-05T03:35:19.292Z,227.33
2024-04-05T03:35:52.227Z,227.00
2024-04-05T03:36:23.641Z,227.00
2024-04-05T03:36:55.048Z,227.00
2024-04-05T03:37:26.490Z,227.00
2024-04-05T03:37:58.427Z,227.00
2024-04-05T03:38:29.829Z,227.67
2024-04-05T03:39:02.439Z,228.00
2024-04-05T03:39:33.868Z,228.00
2024-04-05T03:40:05.685Z,228.67
2024-04-05T03:40:41.430Z,229.33
2024-04-05T03:41:12.826Z,231.33
2024-04-05T03:41:44.246Z,232.67
2024-04-05T03:42:15.677Z,237.67
2024-04-05T03:42:49.932Z,253.00
2024-04-05T03:43:21.347Z,263.00
2024-04-05T03:43:52.771Z,264.33
2024-04-05T03:44:24.184Z,262.67
2024-04-05T03:44:55.595Z,261.00
2024-04-05T03:45:27.015Z,259.67
2024-04-05T03:45:58.450Z,256.67
2024-04-05T03:46:32.605Z,253.67
2024-04-05T03:47:04.072Z,252.00
2024-04-05T03:47:35.504Z,251.33
2024-04-05T03:48:07.008Z,250.33
2024-04-05T03:48:38.420Z,248.67
2024-04-05T03:49:09.968Z,244.00
2024-04-05T03:49:42.224Z,239.00
2024-04-05T03:50:13.633Z,233.00
2024-04-05T03:50:45.040Z,228.33
2024-04-05T03:51:16.490Z,228.33
2024-04-05T03:51:48.020Z,229.33
2024-04-05T03:52:20.267Z,230.00
2024-04-05T03:52:52.002Z,230.00
2024-04-05T03:53:23.424Z,231.00
2024-04-05T03:53:54.963Z,231.00
2024-04-05T03:54:26.381Z,231.00
2024-04-05T03:54:57.795Z,230.00
2024-04-05T03:55:29.219Z,229.00
2024-04-05T03:56:00.635Z,227.33
2024-04-05T03:56:32.463Z,226.33
2024-04-05T03:57:04.908Z,226.00
2024-04-05T03:57:37.155Z,226.00
2024-04-05T03:58:08.587Z,226.00
2024-04-05T03:58:40.009Z,226.00
2024-04-05T03:59:11.434Z,225.67
2024-04-05T03:59:42.850Z,225.00
2024-04-05T04:00:14.544Z,224.33
2024-04-05T04:00:52.251Z,223.67
2024-04-05T04:01:23.674Z,222.67
2024-04-05T04:01:55.429Z,222.00
2024-04-05T04:02:26.832Z,220.67
2024-04-05T04:02:58.336Z,219.00
2024-04-05T04:03:29.780Z,216.67
2024-04-05T04:04:01.199Z,214.67
2024-04-05T04:04:32.868Z,212.33
2024-04-05T04:05:04.582Z,210.67
2024-04-05T04:05:35.979Z,209.00
2024-04-05T04:06:07.401Z,209.67
2024-04-05T04:06:39.028Z,211.00
2024-04-05T04:07:10.462Z,212.00
2024-04-05T04:07:41.868Z,212.67
2024-04-05T04:08:13.309Z,213.00
2024-04-05T04:08:44.721Z,213.33
2024-04-05T04:09:17.313Z,214.00
2024-04-05T04:09:48.725Z,214.33
2024-04-05T04:10:20.311Z,216.00
2024-04-05T04:10:51.749Z,218.00
2024-04-05T04:11:23.150Z,219.67
2024-04-05T04:11:54.562Z,221.00
2024-04-05T04:12:26.004Z,221.67
2024-04-05T04:12:57.536Z,224.67
2024-04-05T04:13:28.951Z,230.33
2024-04-05T04:14:00.368Z,236.00
2024-04-05T04:14:32.219Z,239.33
2024-04-05T04:15:04.303Z,243.33
2024-04-05T04:15:36.737Z,248.33
2024-04-05T04:16:08.232Z,256.00
2024-04-05T04:16:43.741Z,271.33
2024-04-05T04:17:15.824Z,277.00
2024-04-05T04:17:47.282Z,278.33
2024-04-05T04:18:18.667Z,274.67
2024-04-05T04:18:50.086Z,267.00
2024-04-05T04:19:21.508Z,259.33
2024-04-05T04:19:52.918Z,256.00
2024-04-05T04:20:25.525Z,254.67
2024-04-05T04:20:56.965Z,252.33
2024-04-05T04:21:28.351Z,249.00
2024-04-05T04:21:59.785Z,246.67
2024-04-05T04:22:33.362Z,242.00
2024-04-05T04:23:04.809Z,234.67
2024-04-05T04:23:36.199Z,229.00
2024-04-05T04:24:08.262Z,225.00
2024-04-05T04:24:40.245Z,220.00
2024-04-05T04:25:11.888Z,217.33
2024-04-05T04:25:43.578Z,215.33
2024-04-05T04:26:16.191Z,214.00
2024-04-05T04:26:47.612Z,212.67
2024-04-05T04:27:19.021Z,210.00
2024-04-05T04:27:50.601Z,207.00
2024-04-05T04:28:22.426Z,205.00
2024-04-05T04:28:53.825Z,202.67
2024-04-05T04:29:25.303Z,202.33
2024-04-05T04:29:56.746Z,203.33
2024-04-05T04:30:29.649Z,202.67
2024-04-05T04:31:16.610Z,202.67
2024-04-05T04:31:48.096Z,201.00
2024-04-05T04:32:20.067Z,199.67
2024-04-05T04:32:51.484Z,202.00
2024-04-05T04:33:22.902Z,204.67
2024-04-05T04:33:54.393Z,206.00
2024-04-05T04:34:25.779Z,206.33
2024-04-05T04:34:57.198Z,207.00
2024-04-05T04:35:28.619Z,207.00
2024-04-05T04:36:00.042Z,207.67
2024-04-05T04:36:31.456Z,205.67
2024-04-05T04:37:02.913Z,200.67
2024-04-05T04:37:34.376Z,196.67
2024-04-05T04:38:06.428Z,196.00
2024-04-05T04:38:38.003Z,195.33
2024-04-05T04:39:09.453Z,193.33
2024-04-05T04:39:41.895Z,190.67
2024-04-05T04:40:13.333Z,191.00
2024-04-05T04:40:44.829Z,192.67
2024-04-05T04:41:16.514Z,193.00
2024-04-05T04:41:47.925Z,193.00
2024-04-05T04:42:19.342Z,193.00
2024-04-05T04:42:50.757Z,192.00
2024-04-05T04:43:22.364Z,193.33
2024-04-05T04:43:55.425Z,194.33
2024-04-05T04:44:26.836Z,195.00
2024-04-05T04:44:58.243Z,195.00
2024-04-05T04:45:29.660Z,195.67
2024-04-05T04:46:01.075Z,196.00
2024-04-05T04:46:32.630Z,196.00
2024-04-05T04:47:04.624Z,196.00
2024-04-05T04:47:36.049Z,196.00
2024-04-05T04:48:07.466Z,196.00
2024-04-05T04:48:39.107Z,196.00
2024-04-05T04:49:10.528Z,196.33
2024-04-05T04:49:42.033Z,197.00
2024-04-05T04:50:13.490Z,197.00
2024-04-05T04:50:44.876Z,197.33
2024-04-05T04:51:16.296Z,199.00
2024-04-05T04:51:47.710Z,200.67
2024-04-05T04:52:19.154Z,202.00
2024-04-05T04:52:50.711Z,203.00
2024-04-05T04:53:22.180Z,204.33
2024-04-05T04:53:54.596Z,205.67
2024-04-05T04:54:26.346Z,206.00
2024-04-05T04:54:58.474Z,206.00
2024-04-05T04:55:29.898Z,206.00
2024-04-05T04:56:01.321Z,206.00
2024-04-05T04:56:32.772Z,206.00
2024-04-05T04:57:05.696Z,206.00
2024-04-05T04:57:37.752Z,206.00
2024-04-05T04:58:11.183Z,206.00
2024-04-05T04:58:43.851Z,206.00
2024-04-05T04:59:15.257Z,205.67
2024-04-05T04:59:46.697Z,205.00
2024-04-05T05:00:18.116Z,205.67
2024-04-05T05:00:50.107Z,206.33
2024-04-05T05:01:21.536Z,207.67
2024-04-05T05:01:52.929Z,209.00
2024-04-05T05:02:24.347Z,209.00
2024-04-05T05:02:55.764Z,209.00
2024-04-05T05:03:27.202Z,209.00
2024-04-05T05:03:59.112Z,209.33
2024-04-05T05:04:30.563Z,215.33
2024-04-05T05:05:01.995Z,224.33
2024-04-05T05:05:33.528Z,226.33
2024-04-05T05:06:04.930Z,225.33
2024-04-05T05:06:36.345Z,224.33
2024-04-05T05:07:07.793Z,223.33
2024-04-05T05:07:40.095Z,222.00
2024-04-05T05:08:11.517Z,222.00
2024-04-05T05:08:42.937Z,221.67
2024-04-05T05:09:15.885Z,221.00
2024-04-05T05:09:47.404Z,220.00
2024-04-05T05:10:18.868Z,218.67
2024-04-05T05:10:50.344Z,216.33
2024-04-05T05:11:21.909Z,214.00
2024-04-05T05:11:53.314Z,210.00
2024-04-05T05:12:24.737Z,203.00
2024-04-05T05:12:56.148Z,196.67
2024-04-05T05:13:27.561Z,195.00
2024-04-05T05:13:59.474Z,194.00
2024-04-05T05:14:30.922Z,191.00
2024-04-05T05:15:03.088Z,190.33
2024-04-05T05:15:34.509Z,194.00
2024-04-05T05:16:06.064Z,197.67
2024-04-05T05:16:37.501Z,200.00
2024-04-05T05:17:08.924Z,198.67
2024-04-05T05:17:40.505Z,196.00
2024-04-05T05:18:12.098Z,191.67
2024-04-05T05:18:43.898Z,189.00
2024-04-05T05:19:15.315Z,185.67
2024-04-05T05:19:46.773Z,181.33
2024-04-05T05:20:22.133Z,179.00
2024-04-05T05:20:54.901Z,178.67
2024-04-05T05:21:26.335Z,178.67
2024-04-05T05:21:57.972Z,180.00
2024-04-05T05:22:29.371Z,182.33
2024-04-05T05:23:00.999Z,184.00
2024-04-05T05:23:32.414Z,184.67
2024-04-05T05:24:04.522Z,185.00
2024-04-05T05:24:35.953Z,185.67
2024-04-05T05:25:07.964Z,186.00
2024-04-05T05:25:40.577Z,186.00
2024-04-05T05:26:11.975Z,186.00
2024-04-05T05:26:43.411Z,184.33
2024-04-05T05:27:14.802Z,180.67
2024-04-05T05:27:46.621Z,176.00
2024-04-05T05:28:18.034Z,174.00
2024-04-05T05:28:49.479Z,175.00
2024-04-05T05:29:20.978Z,176.67
2024-04-05T05:29:52.385Z,177.67
2024-04-05T05:30:24.588Z,178.00
2024-04-05T05:30:55.981Z,178.00
2024-04-05T05:31:27.400Z,178.33
2024-04-05T05:31:58.846Z,179.00
2024-04-05T05:32:30.595Z,179.00
2024-04-05T05:33:02.040Z,179.67
2024-04-05T05:33:33.458Z,180.33
2024-04-05T05:34:06.370Z,182.00
2024-04-05T05:34:38.611Z,184.00
2024-04-05T05:35:10.054Z,209.00
2024-04-05T05:35:41.472Z,238.67
2024-04-05T05:36:13.522Z,241.33
2024-04-05T05:36:44.936Z,276.33
2024-04-05T05:37:16.724Z,315.33
2024-04-05T05:37:48.159Z,329.33
2024-04-05T05:38:19.579Z,332.00
2024-04-05T05:38:50.976Z,329.67
2024-04-05T05:39:22.395Z,327.00
2024-04-05T05:39:53.812Z,323.33
2024-04-05T05:40:26.494Z,320.67
2024-04-05T05:40:57.935Z,308.00
2024-04-05T05:41:29.930Z,309.67
2024-04-05T05:42:01.929Z,318.67
2024-04-05T05:42:33.357Z,302.33
2024-04-05T05:43:04.819Z,292.33
2024-04-05T05:43:36.289Z,295.33
2024-04-05T05:44:07.692Z,300.67
2024-04-05T05:44:39.182Z,283.67
2024-04-05T05:45:10.601Z,269.00
2024-04-05T05:45:42.238Z,245.33
2024-04-05T05:46:13.688Z,229.67
2024-04-05T05:46:45.158Z,221.67
2024-04-05T05:47:17.111Z,219.67
2024-04-05T05:47:55.478Z,221.33
2024-04-05T05:48:27.756Z,222.67
2024-04-05T05:49:00.523Z,222.67
2024-04-05T05:49:32.086Z,226.00
2024-04-05T05:50:03.685Z,228.33
2024-04-05T05:50:35.091Z,230.00
2024-04-05T05:51:06.536Z,230.67
2024-04-05T05:51:37.961Z,228.00
2024-04-05T05:52:10.158Z,224.00
2024-04-05T05:52:41.545Z,223.67
2024-04-05T05:53:13.026Z,226.00
2024-04-05T05:53:44.414Z,227.67
2024-04-05T05:54:15.903Z,227.67
2024-04-05T05:54:47.313Z,227.00
2024-04-05T05:55:22.359Z,226.00
2024-04-05T05:55:54.051Z,224.00
2024-04-05T05:56:25.504Z,222.67
2024-04-05T05:56:57.251Z,222.00
2024-04-05T05:57:28.643Z,223.00
2024-04-05T05:58:00.137Z,224.67
2024-04-05T05:58:31.611Z,225.00
2024-04-05T05:59:03.693Z,228.33
2024-04-05T05:59:35.642Z,248.67
2024-04-05T06:00:09.843Z,270.00
2024-04-05T06:00:41.365Z,280.00
2024-04-05T06:01:12.790Z,281.33
2024-04-05T06:01:44.279Z,271.67
2024-04-05T06:02:15.812Z,262.00
2024-04-05T06:02:47.228Z,259.67
2024-04-05T06:03:19.063Z,262.33
2024-04-05T06:03:50.535Z,273.33
2024-04-05T06:04:21.928Z,272.67
2024-04-05T06:04:53.406Z,269.67
2024-04-05T06:05:24.794Z,269.33
2024-04-05T06:05:56.213Z,274.67
2024-04-05T06:06:27.628Z,271.00
2024-04-05T06:06:59.281Z,270.67
2024-04-05T06:07:30.928Z,267.67
2024-04-05T06:08:02.720Z,267.33
2024-04-05T06:08:34.370Z,266.33
2024-04-05T06:09:06.919Z,264.00
2024-04-05T06:09:38.366Z,264.00
2024-04-05T06:10:10.004Z,264.33
2024-04-05T06:10:41.446Z,264.00
2024-04-05T06:11:12.874Z,255.67
2024-04-05T06:11:48.021Z,243.67
2024-04-05T06:12:19.426Z,235.33
2024-04-05T06:12:50.842Z,220.67
2024-04-05T06:13:23.267Z,217.00
2024-04-05T06:13:54.761Z,220.00
2024-04-05T06:14:28.136Z,221.00
2024-04-05T06:14:59.586Z,216.67
2024-04-05T06:15:31.147Z,216.00
2024-04-05T06:16:02.787Z,220.33
2024-04-05T06:16:34.421Z,222.33
2024-04-05T06:17:06.388Z,218.67
2024-04-05T06:17:38.104Z,212.00
2024-04-05T06:18:09.539Z,209.33
2024-04-05T06:18:45.411Z,207.67
2024-04-05T06:19:16.818Z,203.67
2024-04-05T06:19:52.964Z,196.33
2024-04-05T06:20:26.950Z,191.00
2024-04-05T06:21:01.401Z,187.33
2024-04-05T06:21:32.913Z,185.00
2024-04-05T06:22:05.056Z,182.33
2024-04-05T06:22:36.976Z,178.67
2024-04-05T06:23:08.496Z,181.00
2024-04-05T06:23:39.966Z,184.00
2024-04-05T06:24:11.398Z,181.00
2024-04-05T06:24:43.630Z,177.00
2024-04-05T06:25:15.070Z,186.00
2024-04-05T06:25:57.753Z,205.00
2024-04-05T06:26:29.872Z,235.00
2024-04-05T06:27:01.323Z,241.67
2024-04-05T06:27:35.154Z,247.67
2024-04-05T06:28:06.574Z,256.67
2024-04-05T06:28:40.868Z,249.67
2024-04-05T06:29:12.573Z,239.00
2024-04-05T06:29:51.072Z,234.00
2024-04-05T06:30:22.532Z,220.00
2024-04-05T06:30:53.924Z,203.67
2024-04-05T06:31:25.330Z,190.33
2024-04-05T06:31:57.035Z,183.00
2024-04-05T06:32:30.550Z,180.00
2024-04-05T06:33:01.963Z,177.33
2024-04-05T06:33:33.399Z,179.67
2024-04-05T06:34:04.801Z,179.33
2024-04-05T06:34:41.242Z,175.67
2024-04-05T06:35:12.854Z,172.00
2024-04-05T06:35:44.325Z,171.33
2024-04-05T06:36:16.359Z,176.33
2024-04-05T06:36:47.761Z,169.67
2024-04-05T06:37:19.192Z,160.33
2024-04-05T06:37:50.677Z,157.67
2024-04-05T06:38:22.089Z,156.33
2024-04-05T06:38:53.510Z,156.67
2024-04-05T06:39:24.919Z,159.33
2024-04-05T06:39:56.348Z,168.00
2024-04-05T06:40:28.048Z,174.00
2024-04-05T06:41:00.213Z,177.67
2024-04-05T06:41:31.690Z,177.67
2024-04-05T06:42:03.601Z,178.00
2024-04-05T06:42:35.450Z,175.00